createdAt,value
2018-10-12T00:00:13.237Z,0.00
2018-10-12T00:01:13.197Z,0.00
2018-10-12T00:02:13.048Z,0.00
2018-10-12T00:03:13.005Z,0.00
2018-10-12T00:04:12.894Z,0.00
2018-10-12T00:05:13.878Z,0.00
2018-10-12T00:06:12.740Z,0.00
2018-10-12T00:07:12.744Z,0.00
2018-10-12T00:08:12.612Z,0.00
2018-10-12T00:09:12.557Z,0.00
2018-10-12T00:10:12.432Z,0.00
2018-10-12T00:12:54.513Z,0.00
2018-10-12T00:13:54.560Z,0.00
2018-10-12T00:14:54.362Z,0.00
2018-10-12T00:15:54.401Z,0.00
2018-10-12T00:16:54.186Z,0.00
2018-10-12T00:17:54.169Z,0.00
2018-10-12T00:18:54.032Z,0.00
2018-10-12T00:19:53.987Z,0.00
2018-10-12T00:20:53.886Z,0.00
2018-10-12T00:25:18.038Z,0.00
2018-10-12T00:26:19.030Z,0.00
2018-10-12T00:27:17.981Z,0.00
2018-10-12T00:30:00.038Z,0.00
2018-10-12T00:32:42.111Z,0.00
2018-10-12T00:33:41.991Z,0.00
2018-10-12T01:01:03.693Z,0.00
2018-10-12T01:02:03.584Z,0.00
2018-10-12T01:03:03.620Z,0.00
2018-10-12T01:04:03.417Z,0.00
2018-10-12T01:05:03.393Z,0.00
2018-10-12T01:06:03.269Z,0.00
2018-10-12T01:07:03.261Z,0.00
2018-10-12T01:08:03.129Z,0.00
2018-10-12T01:09:03.222Z,0.00
2018-10-12T01:10:02.944Z,0.00
2018-10-12T01:12:19.668Z,0.00
2018-10-12T01:12:20.190Z,0.00
2018-10-12T01:13:20.171Z,0.00
2018-10-12T01:14:19.971Z,0.00
2018-10-12T01:15:19.979Z,0.00
2018-10-12T01:16:19.786Z,0.00
2018-10-12T01:17:19.896Z,0.00
2018-10-12T01:18:19.670Z,0.00
2018-10-12T01:19:19.603Z,0.00
2018-10-12T01:20:19.509Z,0.00
2018-10-12T01:21:19.487Z,0.00
2018-10-12T01:22:19.311Z,0.00
2018-10-12T01:23:19.419Z,0.00
2018-10-12T01:24:19.192Z,0.00
2018-10-12T01:25:19.112Z,0.00
2018-10-12T01:26:18.984Z,0.00
2018-10-12T01:27:19.003Z,0.00
2018-10-12T01:28:18.837Z,0.00
2018-10-12T01:29:18.811Z,0.00
2018-10-12T01:30:18.655Z,0.00
2018-10-12T01:31:18.624Z,0.00
2018-10-12T01:32:18.507Z,0.00
2018-10-12T01:33:18.446Z,0.00
2018-10-12T01:34:18.322Z,0.00
2018-10-12T01:37:00.546Z,0.00
2018-10-12T01:38:00.528Z,0.00
2018-10-12T01:39:00.390Z,0.00
2018-10-12T01:40:00.369Z,0.00
2018-10-12T01:41:00.226Z,0.00
2018-10-12T01:42:00.255Z,0.00
2018-10-12T01:43:00.054Z,0.00
2018-10-12T01:44:00.089Z,0.00
2018-10-12T01:44:59.901Z,0.00
2018-10-12T01:45:59.878Z,0.00
2018-10-12T01:46:59.725Z,0.00
2018-10-12T01:47:59.677Z,0.00
2018-10-12T01:48:59.582Z,0.00
2018-10-12T01:49:59.599Z,0.00
2018-10-12T01:50:59.403Z,0.00
2018-10-12T01:51:59.375Z,0.00
2018-10-12T01:52:59.310Z,0.00
2018-10-12T01:53:59.256Z,0.00
2018-10-12T01:54:59.083Z,0.00
2018-10-12T01:55:59.233Z,0.00
2018-10-12T01:56:58.950Z,0.00
2018-10-12T02:00:48.542Z,0.00
2018-10-12T02:01:48.547Z,0.00
2018-10-12T02:02:48.386Z,0.00
2018-10-12T02:03:48.455Z,0.00
2018-10-12T02:04:48.217Z,0.00
2018-10-12T02:07:30.079Z,0.00
2018-10-12T02:08:29.970Z,0.00
2018-10-12T02:09:29.887Z,0.00
2018-10-12T02:10:29.847Z,0.00
2018-10-12T02:11:29.728Z,0.00
2018-10-12T02:12:29.742Z,0.00
2018-10-12T02:13:29.582Z,0.00
2018-10-12T02:14:29.564Z,0.00
2018-10-12T02:15:29.388Z,0.00
2018-10-12T02:16:29.396Z,0.00
2018-10-12T02:17:29.246Z,0.00
2018-10-12T02:18:29.270Z,0.00
2018-10-12T02:19:29.093Z,0.00
2018-10-12T02:20:29.118Z,0.00
2018-10-12T02:21:28.930Z,0.00
2018-10-12T02:22:28.927Z,0.00
2018-10-12T02:23:28.761Z,0.00
2018-10-12T02:24:28.797Z,0.00
2018-10-12T02:25:28.589Z,0.00
2018-10-12T02:26:28.606Z,0.00
2018-10-12T02:27:28.451Z,0.00
2018-10-12T02:28:28.419Z,0.00
2018-10-12T02:29:28.281Z,0.00
2018-10-12T02:30:28.206Z,0.00
2018-10-12T02:31:28.158Z,0.00
2018-10-12T02:32:28.137Z,0.00
2018-10-12T02:33:27.942Z,0.00
2018-10-12T02:34:27.940Z,0.00
2018-10-12T02:35:27.793Z,0.00
2018-10-12T02:36:27.748Z,0.00
2018-10-12T02:37:27.799Z,0.00
2018-10-12T02:38:27.664Z,0.00
2018-10-12T02:39:27.464Z,0.00
2018-10-12T02:40:27.468Z,0.00
2018-10-12T02:41:27.315Z,0.00
2018-10-12T02:42:27.306Z,0.00
2018-10-12T02:43:27.147Z,0.00
2018-10-12T02:44:27.090Z,0.00
2018-10-12T02:45:26.991Z,0.00
2018-10-12T02:48:09.087Z,0.00
2018-10-12T02:49:09.099Z,0.00
2018-10-12T02:50:08.893Z,0.00
2018-10-12T02:51:08.907Z,0.00
2018-10-12T02:52:08.743Z,0.00
2018-10-12T02:53:08.795Z,0.00
2018-10-12T02:54:08.582Z,0.00
2018-10-12T02:56:50.555Z,0.00
2018-10-12T02:57:50.558Z,0.00
2018-10-12T02:58:50.388Z,0.00
2018-10-12T02:59:52.390Z,0.00
2018-10-12T03:00:50.243Z,0.00
2018-10-12T03:03:32.096Z,0.00
2018-10-12T03:04:32.038Z,0.00
2018-10-12T03:05:31.897Z,0.00
2018-10-12T03:06:31.936Z,0.00
2018-10-12T03:07:31.734Z,0.00
2018-10-12T03:08:31.784Z,0.00
2018-10-12T03:09:31.572Z,0.00
2018-10-12T03:10:31.605Z,0.00
2018-10-12T03:11:31.405Z,0.00
2018-10-12T03:12:31.412Z,0.00
2018-10-12T03:13:31.265Z,0.00
2018-10-12T03:14:31.333Z,0.00
2018-10-12T03:15:31.102Z,0.00
2018-10-12T03:16:31.091Z,0.00
2018-10-12T03:17:30.921Z,0.00
2018-10-12T03:18:30.945Z,0.00
2018-10-12T03:19:30.767Z,0.00
2018-10-12T03:20:30.747Z,0.00
2018-10-12T03:21:30.613Z,0.00
2018-10-12T03:22:30.626Z,0.00
2018-10-12T03:23:30.465Z,0.00
2018-10-12T03:24:30.468Z,0.00
2018-10-12T03:25:30.285Z,0.00
2018-10-12T03:26:32.291Z,0.00
2018-10-12T03:27:30.134Z,0.00
2018-10-12T03:28:30.157Z,0.00
2018-10-12T03:29:29.987Z,0.00
2018-10-12T03:30:29.949Z,0.00
2018-10-12T03:31:29.802Z,0.00
2018-10-12T03:32:29.762Z,0.00
2018-10-12T03:33:29.639Z,0.00
2018-10-12T03:34:30.737Z,0.00
2018-10-12T03:35:29.475Z,0.00
2018-10-12T03:36:29.485Z,0.00
2018-10-12T03:37:29.310Z,0.00
2018-10-12T03:38:29.301Z,0.00
2018-10-12T03:39:29.153Z,0.00
2018-10-12T03:40:29.128Z,0.00
2018-10-12T03:41:28.983Z,0.00
2018-10-12T03:42:29.012Z,0.00
2018-10-12T03:43:28.832Z,0.00
2018-10-12T03:44:29.983Z,0.00
2018-10-12T03:45:28.688Z,0.00
2018-10-12T03:46:28.654Z,0.00
2018-10-12T03:47:28.534Z,0.00
2018-10-12T03:50:10.593Z,0.00
2018-10-12T03:51:31.465Z,0.00
2018-10-12T03:52:10.416Z,0.00
2018-10-12T03:53:10.464Z,0.00
2018-10-12T03:54:10.273Z,0.00
2018-10-12T03:55:10.216Z,0.00
2018-10-12T03:56:10.136Z,0.00
2018-10-12T03:57:10.013Z,0.00
2018-10-12T03:58:09.950Z,0.00
2018-10-12T03:59:09.845Z,0.00
2018-10-12T04:00:09.794Z,0.00
2018-10-12T04:02:35.201Z,0.00
2018-10-12T04:03:34.997Z,0.00
2018-10-12T04:04:35.016Z,0.00
2018-10-12T04:05:34.843Z,0.00
2018-10-12T04:06:34.775Z,0.00
2018-10-12T04:18:32.409Z,0.00
2018-10-12T04:19:32.284Z,0.00
2018-10-12T04:20:32.222Z,0.00
2018-10-12T04:21:32.124Z,0.00
2018-10-12T04:22:32.172Z,0.00
2018-10-12T04:23:31.955Z,0.00
2018-10-12T04:24:31.950Z,0.00
2018-10-12T04:25:31.916Z,0.00
2018-10-12T04:26:31.726Z,0.00
2018-10-12T04:27:31.668Z,0.00
2018-10-12T04:28:31.566Z,0.00
2018-10-12T04:29:31.475Z,0.00
2018-10-12T04:30:31.407Z,0.00
2018-10-12T04:31:31.327Z,0.00
2018-10-12T04:32:31.269Z,0.00
2018-10-12T04:33:31.158Z,0.00
2018-10-12T04:34:31.099Z,0.00
2018-10-12T04:35:30.997Z,0.00
2018-10-12T04:36:30.919Z,0.00
2018-10-12T04:37:30.852Z,0.00
2018-10-12T04:38:30.761Z,0.00
2018-10-12T04:39:30.686Z,0.00
2018-10-12T04:40:30.590Z,0.00
2018-10-12T04:41:30.503Z,0.00
2018-10-12T04:42:30.429Z,0.00
2018-10-12T04:43:30.349Z,0.00
2018-10-12T04:44:30.298Z,0.00
2018-10-12T04:45:30.226Z,0.00
2018-10-12T04:46:30.116Z,0.00
2018-10-12T04:47:30.020Z,0.00
2018-10-12T04:48:29.975Z,0.00
2018-10-12T04:49:29.878Z,0.00
2018-10-12T04:50:29.813Z,0.00
2018-10-12T04:51:29.698Z,0.00
2018-10-12T04:52:29.692Z,0.00
2018-10-12T04:53:29.556Z,0.00
2018-10-12T04:54:29.497Z,0.00
2018-10-12T04:55:29.508Z,0.00
2018-10-12T04:56:29.295Z,0.00
2018-10-12T04:57:29.229Z,0.00
2018-10-12T04:58:29.253Z,0.00
2018-10-12T04:59:29.123Z,0.00
2018-10-12T05:02:11.104Z,0.00
2018-10-12T05:03:11.014Z,0.00
2018-10-12T05:05:35.627Z,0.00
2018-10-12T05:06:35.533Z,0.00
2018-10-12T05:07:35.495Z,0.00
2018-10-12T05:10:17.621Z,0.00
2018-10-12T05:11:17.533Z,0.00
2018-10-12T05:12:17.429Z,0.00
2018-10-12T05:13:17.365Z,0.00
2018-10-12T05:14:17.247Z,0.00
2018-10-12T05:15:17.232Z,0.00
2018-10-12T05:16:17.114Z,0.00
2018-10-12T05:17:17.045Z,0.00
2018-10-12T05:18:16.943Z,0.00
2018-10-12T05:19:16.875Z,0.00
2018-10-12T05:20:16.807Z,0.00
2018-10-12T05:21:16.700Z,0.00
2018-10-12T05:22:16.727Z,0.00
2018-10-12T05:23:16.556Z,0.00
2018-10-12T05:24:16.450Z,0.00
2018-10-12T05:25:16.428Z,0.00
2018-10-12T05:26:16.308Z,0.00
2018-10-12T05:27:16.352Z,0.00
2018-10-12T05:28:16.152Z,0.00
2018-10-12T05:29:17.078Z,0.00
2018-10-12T05:30:16.004Z,0.00
2018-10-12T05:31:15.925Z,0.00
2018-10-12T05:32:15.811Z,0.00
2018-10-12T05:33:15.743Z,0.00
2018-10-12T05:34:15.687Z,0.00
2018-10-12T05:35:15.605Z,0.00
2018-10-12T05:36:15.567Z,0.00
2018-10-12T05:37:15.426Z,0.00
2018-10-12T05:38:15.339Z,0.00
2018-10-12T05:40:57.619Z,5.63
2018-10-12T05:41:57.535Z,5.63
2018-10-12T05:42:57.494Z,5.63
2018-10-12T05:43:58.287Z,5.63
2018-10-12T05:44:57.566Z,5.63
2018-10-12T05:45:57.744Z,5.63
2018-10-12T05:46:57.264Z,11.25
2018-10-12T06:09:19.228Z,61.88
2018-10-12T06:12:01.117Z,73.13
2018-10-12T06:13:02.078Z,78.75
2018-10-12T06:14:00.941Z,84.38
2018-10-12T06:16:43.111Z,90.00
2018-10-12T06:17:43.098Z,95.63
2018-10-12T06:18:43.028Z,95.63
2018-10-12T06:21:25.149Z,101.25
2018-10-12T06:22:26.099Z,101.25
2018-10-12T06:23:24.971Z,106.88
2018-10-12T06:24:24.873Z,106.88
2018-10-12T06:25:24.785Z,106.88
2018-10-12T06:28:06.611Z,112.50
2018-10-12T06:29:27.694Z,118.13
2018-10-12T06:30:06.459Z,118.13
2018-10-12T06:31:06.385Z,118.13
2018-10-12T06:32:06.295Z,123.75
2018-10-12T06:34:48.140Z,123.75
2018-10-12T06:35:48.076Z,123.75
2018-10-12T06:36:47.945Z,123.75
2018-10-12T06:37:47.875Z,129.38
2018-10-12T06:38:47.815Z,129.38
2018-10-12T06:41:29.666Z,129.38
2018-10-12T06:42:29.572Z,129.38
2018-10-12T06:43:29.479Z,135.00
2018-10-12T06:44:29.380Z,129.38
2018-10-12T06:45:29.296Z,135.00
2018-10-12T06:46:29.272Z,135.00
2018-10-12T06:47:29.138Z,135.00
2018-10-12T06:48:30.083Z,140.63
2018-10-12T06:49:28.972Z,140.63
2018-10-12T06:50:28.932Z,140.63
2018-10-12T06:51:28.809Z,140.63
2018-10-12T06:52:28.761Z,140.63
2018-10-12T06:53:28.670Z,140.63
2018-10-12T06:54:29.610Z,146.25
2018-10-12T06:55:28.487Z,146.25
2018-10-12T06:56:28.417Z,151.88
2018-10-12T06:57:28.320Z,151.88
2018-10-12T07:00:10.645Z,163.13
2018-10-12T07:02:52.626Z,168.75
2018-10-12T07:03:52.580Z,168.75
2018-10-12T07:04:52.500Z,168.75
2018-10-12T07:05:52.389Z,174.38
2018-10-12T07:06:52.301Z,174.38
2018-10-12T07:07:52.225Z,185.63
2018-10-12T07:08:52.161Z,191.25
2018-10-12T07:09:53.214Z,196.88
2018-10-12T07:10:51.974Z,196.88
2018-10-12T07:11:51.921Z,208.13
2018-10-12T07:12:51.813Z,213.75
2018-10-12T07:15:34.236Z,241.88
2018-10-12T07:16:34.057Z,247.50
2018-10-12T07:17:33.961Z,286.88
2018-10-12T07:18:33.890Z,309.38
2018-10-12T07:19:33.882Z,399.38
2018-10-12T07:20:35.751Z,528.75
2018-10-12T07:21:33.655Z,635.63
2018-10-12T07:24:21.137Z,270.00
2018-10-12T07:25:21.070Z,663.75
2018-10-12T07:26:20.971Z,748.13
2018-10-12T07:27:21.031Z,753.75
2018-10-12T07:30:03.163Z,517.50
2018-10-12T07:31:04.119Z,472.50
2018-10-12T07:32:02.986Z,714.38
2018-10-12T07:33:02.928Z,618.75
2018-10-12T07:34:02.812Z,1012.50
2018-10-12T07:35:02.735Z,1040.63
2018-10-12T07:36:02.672Z,1068.75
2018-10-12T07:38:44.642Z,753.75
2018-10-12T07:39:44.576Z,320.63
2018-10-12T07:42:09.154Z,253.13
2018-10-12T07:43:09.093Z,264.38
2018-10-12T07:44:08.981Z,241.88
2018-10-12T07:45:08.914Z,230.63
2018-10-12T07:46:08.839Z,247.50
2018-10-12T07:48:50.648Z,1108.13
2018-10-12T07:49:50.568Z,646.88
2018-10-12T07:50:50.488Z,911.25
2018-10-12T07:51:51.433Z,568.13
2018-10-12T07:52:50.322Z,703.13
2018-10-12T07:58:24.581Z,1305.00
2018-10-12T07:59:24.574Z,1310.63
2018-10-12T08:00:24.436Z,1316.25
2018-10-12T08:01:24.342Z,1321.88
2018-10-12T08:02:24.241Z,1321.88
2018-10-12T08:03:24.195Z,1333.13
2018-10-12T08:04:24.087Z,1338.75
2018-10-12T08:05:24.010Z,1327.50
2018-10-12T08:06:24.018Z,1327.50
2018-10-12T08:07:24.890Z,1299.38
2018-10-12T08:08:23.775Z,1125.00
2018-10-12T08:09:23.712Z,1276.88
2018-10-12T08:10:23.642Z,1271.25
2018-10-12T08:11:23.554Z,1265.63
2018-10-12T08:12:23.484Z,1327.50
2018-10-12T08:13:23.388Z,1372.50
2018-10-12T08:14:23.309Z,1383.75
2018-10-12T08:15:23.247Z,1428.75
2018-10-12T08:16:23.161Z,1563.75
2018-10-12T08:17:24.122Z,1608.75
2018-10-12T08:18:23.029Z,1411.88
2018-10-12T08:19:22.941Z,607.50
2018-10-12T08:20:22.868Z,562.50
2018-10-12T08:21:22.798Z,646.88
2018-10-12T08:22:22.699Z,770.63
2018-10-12T08:23:22.663Z,1507.50
2018-10-12T08:24:22.544Z,1023.75
2018-10-12T08:27:04.771Z,1648.13
2018-10-12T08:28:04.608Z,545.63
2018-10-12T08:29:04.494Z,472.50
2018-10-12T08:30:04.421Z,438.75
2018-10-12T08:31:04.349Z,461.25
2018-10-12T08:32:04.262Z,500.63
2018-10-12T08:33:04.235Z,551.25
2018-10-12T08:34:04.125Z,624.38
2018-10-12T08:35:04.055Z,691.88
2018-10-12T08:37:46.150Z,720.00
2018-10-12T08:38:46.290Z,1698.75
2018-10-12T08:39:46.042Z,596.25
2018-10-12T08:40:45.943Z,900.00
2018-10-12T08:41:45.897Z,506.25
2018-10-12T08:44:27.679Z,1805.63
2018-10-12T08:45:27.590Z,1845.00
2018-10-12T08:46:27.503Z,1906.88
2018-10-12T08:49:09.719Z,618.75
2018-10-12T08:50:09.603Z,624.38
2018-10-12T08:51:09.502Z,1558.13
2018-10-12T08:52:09.428Z,821.25
2018-10-12T08:53:09.369Z,776.25
2018-10-12T08:54:09.315Z,703.13
2018-10-12T08:55:09.243Z,686.25
2018-10-12T08:56:09.139Z,652.50
2018-10-12T08:57:09.203Z,770.63
2018-10-12T08:58:08.998Z,1141.88
2018-10-12T08:59:08.904Z,2092.50
2018-10-12T09:00:08.830Z,1215.00
2018-10-12T09:01:08.746Z,855.00
2018-10-12T09:02:08.668Z,961.88
2018-10-12T09:03:08.606Z,2070.00
2018-10-12T09:04:08.522Z,1445.63
2018-10-12T09:05:08.446Z,1901.25
2018-10-12T09:06:08.349Z,1963.13
2018-10-12T09:07:08.257Z,1811.25
2018-10-12T09:08:08.190Z,2081.25
2018-10-12T09:09:08.125Z,2210.63
2018-10-12T09:10:08.075Z,1473.75
2018-10-12T09:11:07.996Z,1681.88
2018-10-12T09:12:07.896Z,1946.25
2018-10-12T09:13:07.821Z,1051.88
2018-10-12T09:15:49.803Z,793.13
2018-10-12T09:16:51.613Z,590.63
2018-10-12T09:17:49.535Z,1158.75
2018-10-12T09:18:49.462Z,1496.25
2018-10-12T09:19:49.363Z,2030.63
2018-10-12T09:20:49.353Z,798.75
2018-10-12T09:21:49.300Z,866.25
2018-10-12T09:22:49.143Z,1265.63
2018-10-12T09:23:49.072Z,1822.50
2018-10-12T09:24:48.999Z,2148.75
2018-10-12T09:25:49.106Z,2137.50
2018-10-12T09:26:48.848Z,2143.13
2018-10-12T09:27:48.775Z,2109.38
2018-10-12T09:30:30.673Z,2188.13
2018-10-12T09:31:30.650Z,2205.00
2018-10-12T09:32:30.520Z,2244.38
2018-10-12T09:35:12.681Z,2334.38
2018-10-12T09:36:14.633Z,2401.88
2018-10-12T09:37:12.574Z,2289.38
2018-10-12T09:38:12.468Z,753.75
2018-10-12T09:39:12.380Z,720.00
2018-10-12T09:40:12.322Z,2356.88
2018-10-12T09:41:12.233Z,2340.00
2018-10-12T09:42:12.191Z,2266.88
2018-10-12T09:43:12.094Z,2238.75
2018-10-12T09:44:12.014Z,2171.25
2018-10-12T09:45:11.944Z,2193.75
2018-10-12T09:46:11.883Z,2205.00
2018-10-12T09:47:11.818Z,2244.38
2018-10-12T09:49:53.702Z,2255.63
2018-10-12T09:52:35.896Z,2306.25
2018-10-12T09:53:35.632Z,2328.75
2018-10-12T09:54:35.549Z,2351.25
2018-10-12T09:57:18.296Z,2385.00
2018-10-12T09:58:17.621Z,2385.00
2018-10-12T09:59:17.562Z,2356.88
2018-10-12T10:00:17.484Z,2328.75
2018-10-12T10:01:17.413Z,2351.25
2018-10-12T10:02:17.436Z,2379.38
2018-10-12T10:03:17.248Z,2390.63
2018-10-12T10:04:17.191Z,2407.50
2018-10-12T10:05:17.134Z,2452.50
2018-10-12T10:07:59.225Z,2452.50
2018-10-12T10:10:41.186Z,2446.88
2018-10-12T10:11:41.140Z,2491.88
2018-10-12T10:12:41.074Z,2469.38
2018-10-12T10:13:41.039Z,2441.25
2018-10-12T10:14:40.901Z,2446.88
2018-10-12T10:15:40.835Z,2452.50
2018-10-12T10:16:40.767Z,2475.00
2018-10-12T10:17:40.716Z,2446.88
2018-10-12T10:18:40.654Z,2463.75
2018-10-12T10:19:40.564Z,2435.63
2018-10-12T10:20:40.483Z,2441.25
2018-10-12T10:21:40.411Z,2458.13
2018-10-12T10:22:40.340Z,2503.13
2018-10-12T10:23:40.310Z,2542.50
2018-10-12T10:24:40.259Z,2548.13
2018-10-12T10:25:40.127Z,2520.00
2018-10-12T10:26:40.060Z,2520.00
2018-10-12T10:27:39.997Z,2385.00
2018-10-12T10:28:39.941Z,2340.00
2018-10-12T10:29:39.851Z,2385.00
2018-10-12T10:30:39.776Z,2368.13
2018-10-12T10:31:39.701Z,2385.00
2018-10-12T10:32:39.622Z,2396.25
2018-10-12T10:33:39.596Z,2452.50
2018-10-12T10:34:39.491Z,2452.50
2018-10-12T10:37:21.701Z,2491.88
2018-10-12T10:38:21.736Z,2469.38
2018-10-12T10:39:21.780Z,2255.63
2018-10-12T10:40:21.658Z,2165.63
2018-10-12T10:41:21.688Z,2266.88
2018-10-12T10:44:03.754Z,2435.63
2018-10-12T10:45:03.665Z,2508.75
2018-10-12T10:46:03.556Z,2593.13
2018-10-12T10:47:03.513Z,2593.13
2018-10-12T10:48:03.426Z,2671.88
2018-10-12T10:49:03.390Z,2649.38
2018-10-12T10:50:03.281Z,2610.00
2018-10-12T10:51:03.245Z,2621.25
2018-10-12T10:52:03.137Z,2604.38
2018-10-12T10:54:45.236Z,2581.88
2018-10-12T10:55:45.167Z,2553.75
2018-10-12T10:56:45.069Z,2525.63
2018-10-12T10:59:27.272Z,2424.38
2018-10-12T11:00:27.179Z,2289.38
2018-10-12T11:01:27.077Z,2458.13
2018-10-12T11:04:09.216Z,2396.25
2018-10-12T11:05:10.192Z,2390.63
2018-10-12T11:06:09.102Z,2413.13
2018-10-12T11:08:51.246Z,2441.25
2018-10-12T11:09:52.192Z,2430.00
2018-10-12T11:10:51.087Z,2424.38
2018-10-12T11:13:33.232Z,2390.63
2018-10-12T11:14:33.169Z,2396.25
2018-10-12T11:15:33.131Z,2407.50
2018-10-12T11:16:33.028Z,2435.63
2018-10-12T11:17:32.946Z,2413.13
2018-10-12T11:18:32.881Z,2385.00
2018-10-12T11:19:32.821Z,2334.38
2018-10-12T11:20:33.755Z,2255.63
2018-10-12T11:21:32.667Z,2182.50
2018-10-12T11:24:14.722Z,2193.75
2018-10-12T11:25:14.690Z,2160.00
2018-10-12T11:26:14.667Z,2238.75
2018-10-12T11:28:56.733Z,2120.63
2018-10-12T11:29:56.657Z,2047.50
2018-10-12T11:30:56.670Z,2103.75
2018-10-12T11:31:56.551Z,2115.00
2018-10-12T11:32:56.611Z,2306.25
2018-10-12T11:33:56.448Z,2441.25
2018-10-12T11:34:56.305Z,2514.38
2018-10-12T11:35:56.279Z,2486.25
2018-10-12T11:36:56.165Z,2435.63
2018-10-12T11:37:56.104Z,2356.88
2018-10-12T11:38:56.019Z,2317.50
2018-10-12T11:39:55.965Z,2227.50
2018-10-12T11:40:55.923Z,2160.00
2018-10-12T11:41:55.856Z,2025.00
2018-10-12T11:42:55.780Z,1918.13
2018-10-12T11:45:37.757Z,1614.38
2018-10-12T11:46:37.671Z,1625.63
2018-10-12T11:47:37.621Z,1670.63
2018-10-12T11:48:37.528Z,1726.88
2018-10-12T11:49:37.462Z,1873.13
2018-10-12T11:52:19.889Z,1760.63
2018-10-12T11:53:19.717Z,1777.50
2018-10-12T11:54:19.586Z,1575.00
2018-10-12T11:55:19.525Z,832.50
2018-10-12T11:56:19.500Z,551.25
2018-10-12T11:57:19.410Z,517.50
2018-10-12T11:58:19.300Z,511.88
2018-10-12T11:59:19.286Z,489.38
2018-10-12T12:00:19.158Z,478.13
2018-10-12T12:01:19.134Z,478.13
2018-10-12T12:02:19.097Z,478.13
2018-10-12T12:03:18.973Z,450.00
2018-10-12T12:04:18.924Z,478.13
2018-10-12T12:05:18.822Z,466.88
2018-10-12T12:06:18.740Z,466.88
2018-10-12T12:07:18.705Z,450.00
2018-10-12T12:08:18.581Z,438.75
2018-10-12T12:09:18.537Z,461.25
2018-10-12T12:10:18.448Z,466.88
2018-10-12T12:11:18.353Z,461.25
2018-10-12T12:12:18.269Z,461.25
2018-10-12T12:13:18.279Z,461.25
2018-10-12T12:14:18.148Z,455.63
2018-10-12T12:15:18.072Z,450.00
2018-10-12T12:16:17.973Z,455.63
2018-10-12T12:17:17.912Z,450.00
2018-10-12T12:18:17.976Z,450.00
2018-10-12T12:19:17.805Z,438.75
2018-10-12T12:20:17.661Z,433.13
2018-10-12T12:22:59.781Z,416.25
2018-10-12T12:23:59.699Z,410.63
2018-10-12T12:24:59.595Z,399.38
2018-10-12T12:25:59.539Z,399.38
2018-10-12T12:26:59.472Z,388.13
2018-10-12T12:27:59.371Z,382.50
2018-10-12T12:28:59.331Z,371.25
2018-10-12T12:29:59.217Z,376.88
2018-10-12T12:30:59.138Z,365.63
2018-10-12T12:31:59.064Z,376.88
2018-10-12T12:32:58.997Z,354.38
2018-10-12T12:34:00.938Z,360.00
2018-10-12T12:34:59.048Z,360.00
2018-10-12T12:35:58.972Z,354.38
2018-10-12T12:36:58.667Z,343.13
2018-10-12T12:37:58.595Z,343.13
2018-10-12T12:38:58.580Z,337.50
2018-10-12T12:39:58.455Z,365.63
2018-10-12T12:40:58.372Z,382.50
2018-10-12T12:43:40.253Z,371.25
2018-10-12T12:44:41.248Z,348.75
2018-10-12T12:45:40.143Z,376.88
2018-10-12T12:46:40.035Z,410.63
2018-10-12T12:47:40.050Z,382.50
2018-10-12T12:48:40.114Z,393.75
2018-10-12T12:49:39.801Z,382.50
2018-10-12T12:50:41.749Z,438.75
2018-10-12T12:51:39.685Z,483.75
2018-10-12T12:52:39.591Z,433.13
2018-10-12T12:53:39.482Z,433.13
2018-10-12T12:56:21.783Z,343.13
2018-10-12T12:59:03.787Z,354.38
2018-10-12T13:00:03.715Z,376.88
2018-10-12T13:01:03.604Z,365.63
2018-10-12T13:02:04.574Z,337.50
2018-10-12T13:03:03.448Z,309.38
2018-10-12T13:04:03.409Z,315.00
2018-10-12T13:05:03.320Z,315.00
2018-10-12T13:06:03.227Z,315.00
2018-10-12T13:07:03.137Z,309.38
2018-10-12T13:08:03.130Z,315.00
2018-10-12T13:09:02.998Z,303.75
2018-10-12T13:11:45.282Z,281.25
2018-10-12T13:14:27.285Z,309.38
2018-10-12T13:15:27.189Z,298.13
2018-10-12T13:16:27.114Z,320.63
2018-10-12T13:17:27.144Z,309.38
2018-10-12T13:18:26.960Z,309.38
2018-10-12T13:19:26.886Z,275.63
2018-10-12T13:20:26.941Z,286.88
2018-10-12T13:21:26.752Z,292.50
2018-10-12T13:22:26.692Z,270.00
2018-10-12T13:25:08.763Z,286.88
2018-10-12T13:27:50.798Z,298.13
2018-10-12T13:30:32.784Z,286.88
2018-10-12T13:31:32.726Z,275.63
2018-10-12T13:32:32.623Z,264.38
2018-10-12T13:33:32.565Z,275.63
2018-10-12T13:34:32.463Z,275.63
2018-10-12T13:37:05.886Z,264.38
2018-10-12T13:37:06.391Z,275.63
2018-10-12T13:38:06.349Z,258.75
2018-10-12T13:39:06.261Z,236.25
2018-10-12T13:40:06.169Z,247.50
2018-10-12T13:41:06.082Z,253.13
2018-10-12T13:42:06.042Z,281.25
2018-10-12T13:43:05.951Z,315.00
2018-10-12T13:45:48.276Z,247.50
2018-10-12T13:48:30.311Z,230.63
2018-10-12T13:49:30.231Z,236.25
2018-10-12T13:50:30.122Z,230.63
2018-10-12T13:51:30.054Z,236.25
2018-10-12T13:52:29.970Z,236.25
2018-10-12T13:53:29.917Z,236.25
2018-10-12T13:54:29.917Z,225.00
2018-10-12T13:55:29.750Z,225.00
2018-10-12T13:56:29.662Z,236.25
2018-10-12T13:57:29.600Z,236.25
2018-10-12T13:58:29.542Z,236.25
2018-10-12T13:59:29.439Z,241.88
2018-10-12T14:00:29.453Z,230.63
2018-10-12T14:01:29.292Z,230.63
2018-10-12T14:02:29.231Z,230.63
2018-10-12T14:03:29.186Z,230.63
2018-10-12T14:04:29.056Z,236.25
2018-10-12T14:05:29.008Z,236.25
2018-10-12T14:06:28.911Z,236.25
2018-10-12T14:07:28.851Z,241.88
2018-10-12T14:08:28.791Z,236.25
2018-10-12T14:09:28.670Z,236.25
2018-10-12T14:10:28.714Z,236.25
2018-10-12T14:11:28.543Z,241.88
2018-10-12T14:12:28.579Z,236.25
2018-10-12T14:13:28.399Z,236.25
2018-10-12T14:14:28.340Z,236.25
2018-10-12T14:15:28.254Z,225.00
2018-10-12T14:16:28.177Z,219.38
2018-10-12T14:17:28.088Z,213.75
2018-10-12T14:18:28.043Z,208.13
2018-10-12T14:19:28.089Z,213.75
2018-10-12T14:20:27.892Z,208.13
2018-10-12T14:21:27.771Z,202.50
2018-10-12T14:22:27.678Z,202.50
2018-10-12T14:23:27.602Z,202.50
2018-10-12T14:24:27.545Z,196.88
2018-10-12T14:25:27.450Z,196.88
2018-10-12T14:26:27.369Z,196.88
2018-10-12T14:27:27.313Z,191.25
2018-10-12T14:28:27.225Z,191.25
2018-10-12T14:29:27.156Z,191.25
2018-10-12T14:30:27.099Z,196.88
2018-10-12T14:31:27.022Z,191.25
2018-10-12T14:32:26.908Z,191.25
2018-10-12T14:33:26.859Z,191.25
2018-10-12T14:34:26.830Z,196.88
2018-10-12T14:35:26.748Z,196.88
2018-10-12T14:36:26.612Z,196.88
2018-10-12T14:37:26.548Z,196.88
2018-10-12T14:38:26.448Z,196.88
2018-10-12T14:39:26.398Z,191.25
2018-10-12T14:40:26.316Z,202.50
2018-10-12T14:41:26.229Z,202.50
2018-10-12T14:42:26.195Z,208.13
2018-10-12T14:43:26.092Z,208.13
2018-10-12T14:44:26.271Z,208.13
2018-10-12T14:45:25.946Z,213.75
2018-10-12T14:46:25.914Z,213.75
2018-10-12T14:47:25.784Z,208.13
2018-10-12T14:48:25.684Z,202.50
2018-10-12T14:49:25.692Z,202.50
2018-10-12T14:50:25.530Z,196.88
2018-10-12T14:51:26.569Z,196.88
2018-10-12T14:52:25.525Z,196.88
2018-10-12T14:53:25.330Z,202.50
2018-10-12T14:54:25.230Z,196.88
2018-10-12T14:55:25.158Z,196.88
2018-10-12T14:56:25.140Z,196.88
2018-10-12T14:57:25.026Z,196.88
2018-10-12T14:58:24.913Z,196.88
2018-10-12T14:59:24.847Z,196.88
2018-10-12T15:00:24.766Z,202.50
2018-10-12T15:01:24.714Z,196.88
2018-10-12T15:02:24.724Z,196.88
2018-10-12T15:03:24.708Z,196.88
2018-10-12T15:04:24.474Z,191.25
2018-10-12T15:05:24.460Z,191.25
2018-10-12T15:06:24.310Z,191.25
2018-10-12T15:07:24.252Z,191.25
2018-10-12T15:08:24.154Z,191.25
2018-10-12T15:09:24.095Z,196.88
2018-10-12T15:10:24.042Z,202.50
2018-10-12T15:11:23.935Z,202.50
2018-10-12T15:12:23.917Z,196.88
2018-10-12T15:13:23.782Z,196.88
2018-10-12T15:14:23.699Z,202.50
2018-10-12T15:17:05.808Z,185.63
2018-10-12T15:18:05.753Z,180.00
2018-10-12T15:19:05.663Z,185.63
2018-10-12T15:20:05.605Z,174.38
2018-10-12T15:21:05.586Z,168.75
2018-10-12T15:23:47.832Z,163.13
2018-10-12T15:26:29.820Z,174.38
2018-10-12T15:27:29.742Z,174.38
2018-10-12T15:28:29.689Z,191.25
2018-10-12T15:29:29.588Z,180.00
2018-10-12T15:30:29.513Z,196.88
2018-10-12T15:31:29.445Z,191.25
2018-10-12T15:32:29.358Z,180.00
2018-10-12T15:33:29.312Z,180.00
2018-10-12T15:34:29.211Z,168.75
2018-10-12T15:35:29.130Z,163.13
2018-10-12T15:36:29.060Z,157.50
2018-10-12T15:39:11.347Z,140.63
2018-10-12T15:40:11.245Z,135.00
2018-10-12T15:41:11.179Z,129.38